Time;durP1;ratioP1;P1;durP2;ratioP2;P2;SDS_P1;SDS_P2;PMS_P1;PMS_P2;Temp;Humidity;BMP_temperature;BMP_pressure;BME280_temperature;BME280_humidity;BME280_pressure;Samples;Min_cycle;Max_cycle;Signal;HPM_P1;HPM_P2
2023/09/25 00:00:00;;;;;;;4.43;3.70;;;;;;;;;;5094220;28;20261;-75
2023/09/25 00:02:26;;;;;;;4.80;3.60;;;;;;;;;;5102350;28;20238;-75
2023/09/25 00:04:53;;;;;;;3.87;3.57;;;;;;;;;;5104786;28;20201;-75
2023/09/25 00:07:20;;;;;;;4.40;4.00;;;;;;;;;;5091424;28;20281;-75
2023/09/25 00:09:48;;;;;;;4.83;4.33;;;;;;;;;;5091512;28;20200;-75
2023/09/25 00:12:15;;;;;;;4.07;3.67;;;;;;;;;;5091735;28;20204;-75
2023/09/25 00:14:42;;;;;;;3.80;3.50;;;;;;;;;;5108987;28;20214;-75
2023/09/25 00:17:09;;;;;;;4.63;4.23;;;;;;;;;;5100943;28;20204;-74
2023/09/25 00:19:35;;;;;;;6.73;4.23;;;;;;;;;;5091090;28;20235;-75
2023/09/25 00:22:02;;;;;;;4.40;4.00;;;;;;;;;;5101674;28;20613;-75
2023/09/25 00:24:29;;;;;;;6.13;4.67;;;;;;;;;;5107153;28;20598;-75
2023/09/25 00:26:57;;;;;;;4.40;4.10;;;;;;;;;;5090916;28;20261;-75
2023/09/25 00:29:24;;;;;;;5.07;4.53;;;;;;;;;;5109149;28;20196;-75
2023/09/25 00:31:51;;;;;;;4.57;4.27;;;;;;;;;;5100205;28;20204;-75
2023/09/25 00:34:17;;;;;;;4.57;4.17;;;;;;;;;;5104909;28;20211;-75
2023/09/25 00:36:45;;;;;;;4.83;4.17;;;;;;;;;;5102339;28;20195;-76
2023/09/25 00:39:11;;;;;;;4.43;4.03;;;;;;;;;;5106231;28;20200;-74
2023/09/25 00:41:38;;;;;;;5.10;3.93;;;;;;;;;;5102849;28;20223;-74
2023/09/25 00:44:06;;;;;;;3.80;3.50;;;;;;;;;;5098037;28;20199;-74
2023/09/25 00:46:33;;;;;;;3.80;3.50;;;;;;;;;;5099175;28;20632;-75
2023/09/25 00:49:00;;;;;;;6.17;4.57;;;;;;;;;;5104033;28;20207;-75
2023/09/25 00:51:27;;;;;;;4.80;4.37;;;;;;;;;;5091015;28;20200;-75
2023/09/25 00:53:55;;;;;;;4.70;4.00;;;;;;;;;;5090623;28;20196;-75
2023/09/25 00:56:22;;;;;;;6.07;4.73;;;;;;;;;;5090640;28;20207;-75
2023/09/25 00:58:48;;;;;;;4.63;4.10;;;;;;;;;;5090452;28;20207;-75
2023/09/25 01:01:17;;;;;;;8.93;4.67;;;;;;;;;;5090319;28;20216;-76
2023/09/25 01:03:43;;;;;;;4.37;4.07;;;;;;;;;;5090751;28;20651;-73
2023/09/25 01:06:11;;;;;;;4.00;3.70;;;;;;;;;;5090498;28;20211;-73
2023/09/25 01:08:37;;;;;;;5.67;4.20;;;;;;;;;;5097936;28;20200;-73
2023/09/25 01:11:07;;;;;;;7.10;3.50;;;;;;;;;;5110779;28;20230;-73
2023/09/25 01:13:34;;;;;;;4.80;4.30;;;;;;;;;;5103112;28;20200;-73
2023/09/25 01:16:01;;;;;;;4.60;4.20;;;;;;;;;;5106319;28;20264;-73
2023/09/25 01:18:29;;;;;;;4.37;3.90;;;;;;;;;;5114941;28;20733;-73
2023/09/25 01:20:56;;;;;;;4.60;4.20;;;;;;;;;;5112966;28;20636;-73
2023/09/25 01:23:24;;;;;;;5.00;4.60;;;;;;;;;;5103267;28;20203;-73
2023/09/25 01:25:51;;;;;;;4.67;4.37;;;;;;;;;;5100807;28;20203;-73
2023/09/25 01:28:18;;;;;;;6.47;4.37;;;;;;;;;;5105571;28;20196;-73
2023/09/25 01:30:45;;;;;;;4.93;4.00;;;;;;;;;;5094229;28;20211;-73
2023/09/25 01:33:12;;;;;;;7.43;4.33;;;;;;;;;;5094293;28;20595;-73
2023/09/25 01:35:39;;;;;;;5.13;4.63;;;;;;;;;;5094679;28;20207;-73
2023/09/25 01:38:05;;;;;;;4.73;4.27;;;;;;;;;;5094491;28;20200;-73
2023/09/25 01:40:33;;;;;;;4.33;3.73;;;;;;;;;;5107852;28;20207;-73
2023/09/25 01:43:00;;;;;;;4.97;4.00;;;;;;;;;;5104349;28;20230;-73
2023/09/25 01:45:27;;;;;;;4.37;4.03;;;;;;;;;;5100704;28;20195;-73
2023/09/25 01:47:54;;;;;;;4.30;4.00;;;;;;;;;;5104263;28;20212;-72
2023/09/25 01:50:22;;;;;;;5.63;3.87;;;;;;;;;;5093921;28;20208;-74
2023/09/25 01:52:51;;;;;;;4.23;3.93;;;;;;;;;;5104554;28;20195;-74
2023/09/25 01:55:18;;;;;;;4.47;4.07;;;;;;;;;;5110036;28;20189;-73
2023/09/25 01:57:46;;;;;;;7.13;4.27;;;;;;;;;;5093927;28;20204;-72
2023/09/25 02:00:16;;;;;;;4.67;4.03;;;;;;;;;;5098775;28;20662;-76
2023/09/25 02:02:43;;;;;;;7.07;3.80;;;;;;;;;;5101948;28;20332;-76
2023/09/25 02:05:10;;;;;;;4.40;4.10;;;;;;;;;;5093967;28;20697;-76
2023/09/25 02:07:37;;;;;;;6.60;5.00;;;;;;;;;;5104995;28;20253;-76
2023/09/25 02:10:04;;;;;;;6.27;4.43;;;;;;;;;;5094576;28;20856;-76
2023/09/25 02:12:30;;;;;;;5.57;5.17;;;;;;;;;;5093697;28;20207;-76
2023/09/25 02:15:04;;;;;;;4.67;4.30;;;;;;;;;;5093572;28;20669;-76
2023/09/25 02:17:32;;;;;;;4.40;4.00;;;;;;;;;;5093529;28;20195;-76
2023/09/25 02:20:16;;;;;;;5.03;4.63;;;;;;;;;;5093289;28;20625;-76
2023/09/25 02:22:43;;;;;;;4.60;4.30;;;;;;;;;;5092856;28;20664;-76
2023/09/25 02:25:10;;;;;;;5.03;4.13;;;;;;;;;;5092848;28;20200;-76
2023/09/25 02:27:37;;;;;;;3.83;3.53;;;;;;;;;;5092441;28;20215;-76
2023/09/25 02:30:07;;;;;;;4.60;4.30;;;;;;;;;;5103381;28;20223;-76
2023/09/25 02:32:34;;;;;;;6.67;3.83;;;;;;;;;;5099267;28;20195;-76
2023/09/25 02:35:00;;;;;;;4.40;4.00;;;;;;;;;;5113174;28;20576;-76
2023/09/25 02:37:26;;;;;;;5.33;4.20;;;;;;;;;;5112932;28;20196;-76
2023/09/25 02:39:53;;;;;;;5.10;4.60;;;;;;;;;;5102538;28;20219;-76
2023/09/25 02:42:20;;;;;;;4.40;4.00;;;;;;;;;;5097593;28;20223;-76
2023/09/25 02:44:46;;;;;;;4.87;4.47;;;;;;;;;;5102244;28;20218;-76
2023/09/25 02:47:15;;;;;;;4.63;3.77;;;;;;;;;;5111398;28;20192;-76
2023/09/25 02:49:41;;;;;;;4.13;3.80;;;;;;;;;;5113226;28;20199;-76
2023/09/25 02:52:08;;;;;;;7.40;4.17;;;;;;;;;;5107593;28;20204;-76
2023/09/25 02:54:35;;;;;;;5.37;4.17;;;;;;;;;;5105618;28;20674;-76
2023/09/25 02:57:02;;;;;;;5.10;4.60;;;;;;;;;;5104181;28;20197;-76
2023/09/25 02:59:28;;;;;;;5.87;4.27;;;;;;;;;;5103481;28;20192;-76
2023/09/25 03:01:55;;;;;;;5.17;4.30;;;;;;;;;;5099183;28;20246;-76
2023/09/25 03:04:23;;;;;;;4.47;4.07;;;;;;;;;;5105793;28;20196;-76
2023/09/25 03:06:50;;;;;;;4.83;4.23;;;;;;;;;;5107861;28;20682;-75
2023/09/25 03:09:17;;;;;;;5.37;4.27;;;;;;;;;;5112739;28;20192;-75
2023/09/25 03:11:44;;;;;;;4.93;4.53;;;;;;;;;;5112757;28;20195;-73
2023/09/25 03:14:11;;;;;;;5.33;4.60;;;;;;;;;;5112751;28;20203;-73
2023/09/25 03:16:37;;;;;;;6.93;4.50;;;;;;;;;;5107742;28;20204;-73
2023/09/25 03:19:05;;;;;;;4.83;4.43;;;;;;;;;;5099154;28;20227;-73
2023/09/25 03:21:34;;;;;;;4.27;3.87;;;;;;;;;;5098958;28;20199;-73
2023/09/25 03:24:01;;;;;;;4.63;4.17;;;;;;;;;;5112200;28;20597;-73
2023/09/25 03:26:27;;;;;;;5.13;4.50;;;;;;;;;;5099652;28;20198;-73
2023/09/25 03:28:54;;;;;;;5.33;4.83;;;;;;;;;;5097993;28;20200;-73
2023/09/25 03:31:21;;;;;;;5.43;4.20;;;;;;;;;;5099586;28;20206;-73
2023/09/25 03:33:48;;;;;;;4.83;4.47;;;;;;;;;;5111529;28;20700;-73
2023/09/25 03:36:14;;;;;;;4.30;4.00;;;;;;;;;;5091784;28;20197;-74
2023/09/25 03:38:43;;;;;;;4.73;4.43;;;;;;;;;;5095030;28;20252;-73
2023/09/25 03:41:10;;;;;;;5.43;4.93;;;;;;;;;;5106250;28;20196;-71
2023/09/25 03:43:36;;;;;;;4.97;4.57;;;;;;;;;;5111438;28;20238;-71
2023/09/25 03:46:03;;;;;;;5.27;4.77;;;;;;;;;;5110374;28;20553;-70
2023/09/25 03:48:30;;;;;;;4.70;4.30;;;;;;;;;;5112559;28;20301;-71
2023/09/25 03:50:57;;;;;;;5.10;4.50;;;;;;;;;;5106832;28;20211;-71
2023/09/25 03:53:24;;;;;;;10.07;4.73;;;;;;;;;;5103937;28;20648;-72
2023/09/25 03:55:52;;;;;;;5.83;5.07;;;;;;;;;;5093322;28;20200;-71
2023/09/25 03:58:19;;;;;;;4.60;4.20;;;;;;;;;;5103900;28;20199;-71
2023/09/25 04:00:47;;;;;;;5.07;4.57;;;;;;;;;;5092200;28;20199;-74
2023/09/25 04:03:13;;;;;;;5.43;4.87;;;;;;;;;;5103909;28;20604;-73
2023/09/25 04:05:40;;;;;;;5.37;4.53;;;;;;;;;;5111630;28;20661;-73
2023/09/25 04:08:08;;;;;;;4.93;4.50;;;;;;;;;;5098772;28;20215;-73
2023/09/25 04:10:35;;;;;;;5.43;4.93;;;;;;;;;;5094247;28;20207;-73
2023/09/25 04:13:04;;;;;;;5.60;5.13;;;;;;;;;;5099444;28;20273;-72
2023/09/25 04:15:31;;;;;;;5.53;4.73;;;;;;;;;;5111325;28;20634;-73
2023/09/25 04:17:58;;;;;;;5.10;4.60;;;;;;;;;;5097055;28;20207;-72
2023/09/25 04:20:26;;;;;;;5.23;4.73;;;;;;;;;;5094472;28;20208;-72
2023/09/25 04:22:56;;;;;;;5.10;4.60;;;;;;;;;;5108560;28;20219;-72
2023/09/25 04:25:22;;;;;;;6.37;5.27;;;;;;;;;;5104089;28;20202;-72
2023/09/25 04:27:55;;;;;;;6.47;4.83;;;;;;;;;;5105124;28;20203;-72
2023/09/25 04:30:24;;;;;;;6.23;5.67;;;;;;;;;;5103018;28;20208;-72
2023/09/25 04:32:54;;;;;;;7.40;6.10;;;;;;;;;;5094224;28;20200;-72
2023/09/25 04:35:21;;;;;;;7.70;5.47;;;;;;;;;;5110872;28;20208;-76
2023/09/25 04:37:48;;;;;;;7.00;5.43;;;;;;;;;;5111172;28;20588;-75
2023/09/25 04:40:22;;;;;;;6.60;5.47;;;;;;;;;;5111268;28;20211;-75
2023/09/25 04:42:50;;;;;;;7.23;6.20;;;;;;;;;;5110882;28;20215;-74
2023/09/25 04:45:18;;;;;;;5.50;4.77;;;;;;;;;;5094854;28;20587;-75
2023/09/25 04:47:46;;;;;;;7.37;5.47;;;;;;;;;;5100561;28;20295;-75
2023/09/25 04:50:13;;;;;;;6.00;5.47;;;;;;;;;;5111365;28;20591;-75
2023/09/25 04:52:41;;;;;;;5.67;5.17;;;;;;;;;;5111049;28;20211;-75
2023/09/25 04:55:10;;;;;;;8.57;5.37;;;;;;;;;;5105850;28;20208;-75
2023/09/25 04:57:37;;;;;;;5.83;5.20;;;;;;;;;;5090118;28;20204;-75
2023/09/25 05:00:24;;;;;;;6.80;5.80;;;;;;;;;;5090756;28;20690;-75
2023/09/25 05:02:53;;;;;;;5.73;5.23;;;;;;;;;;5090821;28;20752;-75
2023/09/25 05:05:20;;;;;;;6.13;5.57;;;;;;;;;;5090816;28;20200;-75
2023/09/25 05:07:49;;;;;;;7.77;5.93;;;;;;;;;;5091661;28;20203;-75
2023/09/25 05:10:17;;;;;;;14.43;7.40;;;;;;;;;;5100788;28;20200;-75
2023/09/25 05:12:44;;;;;;;6.60;5.10;;;;;;;;;;5089473;28;20196;-75
2023/09/25 05:15:12;;;;;;;7.07;5.57;;;;;;;;;;5089728;28;20577;-75
2023/09/25 05:17:40;;;;;;;7.67;5.53;;;;;;;;;;5093974;28;20704;-75
2023/09/25 05:20:11;;;;;;;11.47;6.07;;;;;;;;;;5099160;28;20231;-75
2023/09/25 05:22:38;;;;;;;6.13;5.20;;;;;;;;;;5105046;28;20731;-75
2023/09/25 05:25:05;;;;;;;7.67;5.70;;;;;;;;;;5100986;28;20228;-75
2023/09/25 05:27:32;;;;;;;6.13;5.63;;;;;;;;;;5093159;28;20212;-75
2023/09/25 05:29:59;;;;;;;5.73;5.10;;;;;;;;;;5110875;28;20207;-75
2023/09/25 05:32:26;;;;;;;9.00;6.07;;;;;;;;;;5107439;28;20204;-75
2023/09/25 05:34:52;;;;;;;7.17;5.60;;;;;;;;;;5090400;28;20697;-75
2023/09/25 05:37:22;;;;;;;6.13;4.83;;;;;;;;;;5104189;28;20204;-75
2023/09/25 05:39:49;;;;;;;7.07;6.37;;;;;;;;;;5090471;28;20196;-75
2023/09/25 05:42:16;;;;;;;5.97;5.37;;;;;;;;;;5094248;28;20670;-75
2023/09/25 05:44:43;;;;;;;6.10;5.60;;;;;;;;;;5099764;28;20670;-75
2023/09/25 05:47:09;;;;;;;6.73;4.97;;;;;;;;;;5090060;28;20215;-75
2023/09/25 05:49:36;;;;;;;5.13;4.60;;;;;;;;;;5101878;28;20207;-75
2023/09/25 05:52:06;;;;;;;5.70;5.30;;;;;;;;;;5096202;28;20199;-75
2023/09/25 05:54:37;;;;;;;6.60;5.10;;;;;;;;;;5111000;28;20295;-75
2023/09/25 05:57:05;;;;;;;8.10;5.20;;;;;;;;;;5096148;28;20239;-75
2023/09/25 05:59:32;;;;;;;7.07;5.93;;;;;;;;;;5110732;28;20745;-75
2023/09/25 06:01:59;;;;;;;5.73;5.23;;;;;;;;;;5105217;28;20212;-75
2023/09/25 06:04:26;;;;;;;5.70;5.03;;;;;;;;;;5093691;28;20774;-75
2023/09/25 06:06:53;;;;;;;7.70;5.87;;;;;;;;;;5100002;28;20211;-75
2023/09/25 06:09:20;;;;;;;9.77;7.27;;;;;;;;;;5100069;28;20208;-75
2023/09/25 06:11:49;;;;;;;7.30;5.60;;;;;;;;;;5100765;28;20207;-75
2023/09/25 06:14:15;;;;;;;5.30;4.90;;;;;;;;;;5099838;28;20207;-75
2023/09/25 06:16:42;;;;;;;6.20;5.67;;;;;;;;;;5101126;28;20206;-75
2023/09/25 06:19:09;;;;;;;5.30;4.83;;;;;;;;;;5099000;28;20228;-75
2023/09/25 06:21:37;;;;;;;6.03;5.43;;;;;;;;;;5093836;28;20224;-75
2023/09/25 06:24:09;;;;;;;5.70;5.20;;;;;;;;;;5107295;28;20223;-75
2023/09/25 06:26:35;;;;;;;6.03;5.43;;;;;;;;;;5113359;28;20199;-75
2023/09/25 06:29:04;;;;;;;9.17;5.17;;;;;;;;;;5112408;28;20203;-75
2023/09/25 06:31:30;;;;;;;6.20;5.07;;;;;;;;;;5102416;28;20191;-75
2023/09/25 06:33:57;;;;;;;6.83;5.43;;;;;;;;;;5099844;28;20205;-75
2023/09/25 06:36:24;;;;;;;6.63;5.47;;;;;;;;;;5113456;28;20628;-75
2023/09/25 06:38:51;;;;;;;5.97;5.33;;;;;;;;;;5111064;28;20636;-75
2023/09/25 06:41:18;;;;;;;4.50;4.20;;;;;;;;;;5092899;28;20211;-75
2023/09/25 06:43:45;;;;;;;5.60;5.10;;;;;;;;;;5092917;28;20224;-75
2023/09/25 06:46:14;;;;;;;6.17;5.00;;;;;;;;;;5092943;28;20291;-75
2023/09/25 06:48:41;;;;;;;5.97;5.47;;;;;;;;;;5092715;28;20700;-75
2023/09/25 06:51:07;;;;;;;5.43;4.77;;;;;;;;;;5102807;28;20625;-75
2023/09/25 06:53:34;;;;;;;7.00;5.93;;;;;;;;;;5109466;28;20208;-75
2023/09/25 06:56:01;;;;;;;5.80;4.90;;;;;;;;;;5103516;28;20199;-75
2023/09/25 06:58:28;;;;;;;6.03;5.37;;;;;;;;;;5099489;28;20203;-75
2023/09/25 07:00:55;;;;;;;6.50;4.90;;;;;;;;;;5102603;28;20200;-75
2023/09/25 07:03:23;;;;;;;5.53;5.03;;;;;;;;;;5092362;28;20238;-75
2023/09/25 07:05:50;;;;;;;9.47;4.97;;;;;;;;;;5092668;28;20201;-75
2023/09/25 07:08:16;;;;;;;6.67;4.27;;;;;;;;;;5096594;28;20200;-75
2023/09/25 07:10:46;;;;;;;7.83;5.03;;;;;;;;;;5112708;28;20203;-75
2023/09/25 07:13:12;;;;;;;8.20;4.83;;;;;;;;;;5107001;28;20254;-75
2023/09/25 07:15:40;;;;;;;5.17;4.57;;;;;;;;;;5092262;28;20196;-75
2023/09/25 07:18:06;;;;;;;5.67;5.13;;;;;;;;;;5110869;28;20263;-75
2023/09/25 07:20:34;;;;;;;4.97;4.40;;;;;;;;;;5101012;28;20200;-75
2023/09/25 07:23:01;;;;;;;4.60;4.30;;;;;;;;;;5092529;28;20232;-75
2023/09/25 07:25:28;;;;;;;5.90;3.77;;;;;;;;;;5092217;28;20211;-75
2023/09/25 07:27:55;;;;;;;5.90;5.40;;;;;;;;;;5105878;28;20749;-75
2023/09/25 07:30:22;;;;;;;6.63;4.63;;;;;;;;;;5092866;28;20200;-74
2023/09/25 07:32:49;;;;;;;9.07;4.20;;;;;;;;;;5092095;28;20200;-75
2023/09/25 07:35:16;;;;;;;5.03;4.63;;;;;;;;;;5091792;28;20213;-75
2023/09/25 07:37:44;;;;;;;5.80;4.73;;;;;;;;;;5091915;28;20200;-75
2023/09/25 07:40:13;;;;;;;5.13;4.30;;;;;;;;;;5092647;28;20751;-75
2023/09/25 07:42:40;;;;;;;5.00;4.50;;;;;;;;;;5104765;28;20207;-75
2023/09/25 07:45:12;;;;;;;4.43;4.03;;;;;;;;;;5105183;28;20227;-75
2023/09/25 07:47:39;;;;;;;6.70;4.20;;;;;;;;;;5074372;28;20703;-75
2023/09/25 07:50:10;;;;;;;5.20;4.60;;;;;;;;;;5093550;28;20266;-75
2023/09/25 07:52:38;;;;;;;8.30;4.63;;;;;;;;;;5111919;28;20579;-75
2023/09/25 07:55:11;;;;;;;5.17;4.67;;;;;;;;;;5098190;28;20200;-75
2023/09/25 07:57:39;;;;;;;5.40;3.97;;;;;;;;;;5101882;28;20253;-75
2023/09/25 08:00:25;;;;;;;7.20;4.47;;;;;;;;;;5105310;28;20559;-75
2023/09/25 08:02:52;;;;;;;5.10;4.00;;;;;;;;;;5105064;28;20260;-74
2023/09/25 08:05:19;;;;;;;5.20;4.70;;;;;;;;;;5104747;28;20219;-75
2023/09/25 08:07:48;;;;;;;6.37;4.77;;;;;;;;;;5092156;28;20196;-75
2023/09/25 08:10:17;;;;;;;4.10;3.80;;;;;;;;;;5103823;28;20662;-75
2023/09/25 08:12:43;;;;;;;4.50;3.90;;;;;;;;;;5092860;28;20200;-75
2023/09/25 08:15:11;;;;;;;4.73;4.33;;;;;;;;;;5111359;28;20224;-75
2023/09/25 08:17:37;;;;;;;4.90;4.27;;;;;;;;;;5111105;28;20287;-75
2023/09/25 08:20:14;;;;;;;5.47;4.93;;;;;;;;;;5111870;28;20721;-75
2023/09/25 08:22:41;;;;;;;6.37;4.03;;;;;;;;;;5098139;28;20207;-75
2023/09/25 08:25:09;;;;;;;7.03;4.90;;;;;;;;;;5101427;28;20727;-75
2023/09/25 08:27:38;;;;;;;4.57;4.10;;;;;;;;;;5107757;28;20203;-75
2023/09/25 08:30:08;;;;;;;4.50;4.17;;;;;;;;;;5100780;28;20287;-75
2023/09/25 08:32:35;;;;;;;4.70;4.13;;;;;;;;;;5095246;28;20199;-75
2023/09/25 08:35:02;;;;;;;11.77;4.37;;;;;;;;;;5111232;28;20708;-75
2023/09/25 08:37:29;;;;;;;5.87;4.53;;;;;;;;;;5093007;28;20192;-75
2023/09/25 08:39:56;;;;;;;4.27;3.87;;;;;;;;;;5103222;28;20244;-75
2023/09/25 08:42:24;;;;;;;5.13;3.93;;;;;;;;;;5105738;28;20196;-75
2023/09/25 08:44:54;;;;;;;6.53;4.30;;;;;;;;;;5103525;28;20230;-75
2023/09/25 08:47:22;;;;;;;3.60;3.30;;;;;;;;;;5105107;28;20193;-75
2023/09/25 08:49:50;;;;;;;5.67;4.20;;;;;;;;;;5103896;28;20317;-75
2023/09/25 08:52:17;;;;;;;6.87;4.60;;;;;;;;;;5097182;28;20196;-75
2023/09/25 08:54:44;;;;;;;5.17;4.50;;;;;;;;;;5097640;28;20207;-75
2023/09/25 08:57:11;;;;;;;8.40;4.30;;;;;;;;;;5090943;28;20218;-75
2023/09/25 08:59:39;;;;;;;9.33;4.80;;;;;;;;;;5090601;28;20200;-75
2023/09/25 09:02:08;;;;;;;6.17;4.27;;;;;;;;;;5110801;28;20226;-75
2023/09/25 09:04:35;;;;;;;5.43;4.60;;;;;;;;;;5097764;28;20243;-75
2023/09/25 09:07:02;;;;;;;4.40;3.83;;;;;;;;;;5103290;28;20209;-75
2023/09/25 09:09:29;;;;;;;5.73;4.90;;;;;;;;;;5091424;28;20253;-75
2023/09/25 09:11:57;;;;;;;5.10;4.43;;;;;;;;;;5110810;28;20627;-75
2023/09/25 09:14:34;;;;;;;4.63;4.03;;;;;;;;;;5095671;28;20208;-74
2023/09/25 09:17:04;;;;;;;4.40;4.00;;;;;;;;;;5090610;28;20739;-75
2023/09/25 09:19:35;;;;;;;7.17;4.90;;;;;;;;;;5103947;28;20212;-75
2023/09/25 09:22:06;;;;;;;6.37;4.07;;;;;;;;;;5101729;28;20199;-75
2023/09/25 09:24:35;;;;;;;6.77;4.47;;;;;;;;;;5097061;28;20261;-75
2023/09/25 09:27:06;;;;;;;5.07;4.60;;;;;;;;;;5098103;28;20235;-75
2023/09/25 09:29:37;;;;;;;5.63;4.57;;;;;;;;;;5090571;28;20204;-75
2023/09/25 09:32:04;;;;;;;6.97;5.13;;;;;;;;;;5103990;28;20202;-75
2023/09/25 09:34:31;;;;;;;4.27;3.80;;;;;;;;;;5104024;28;20196;-75
2023/09/25 09:37:00;;;;;;;6.80;4.43;;;;;;;;;;5091547;28;20222;-75
2023/09/25 09:39:29;;;;;;;5.50;4.10;;;;;;;;;;5094580;28;20281;-75
2023/09/25 09:41:56;;;;;;;4.82;4.20;;;;;;;;;;5094130;28;20207;-75
2023/09/25 09:44:23;;;;;;;4.97;4.07;;;;;;;;;;5094151;28;20244;-75
2023/09/25 09:46:51;;;;;;;4.78;4.13;;;;;;;;;;5108008;28;20207;-75
2023/09/25 09:49:20;;;;;;;4.88;4.05;;;;;;;;;;5102039;28;20200;-75
2023/09/25 09:51:49;;;;;;;8.57;4.85;;;;;;;;;;5113993;28;20244;-75
2023/09/25 09:54:18;;;;;;;9.43;3.80;;;;;;;;;;5114612;28;20207;-75
2023/09/25 09:56:48;;;;;;;7.25;4.28;;;;;;;;;;5097423;28;20208;-75
2023/09/25 09:59:15;;;;;;;4.30;3.90;;;;;;;;;;5104255;28;20249;-75
2023/09/25 10:01:43;;;;;;;5.80;5.28;;;;;;;;;;5110324;28;20201;-75
2023/09/25 10:04:10;;;;;;;5.30;3.92;;;;;;;;;;5104887;28;20280;-75
2023/09/25 10:06:44;;;;;;;6.72;3.50;;;;;;;;;;5096395;28;20197;-75
2023/09/25 10:09:13;;;;;;;6.13;4.13;;;;;;;;;;5093893;28;20208;-75
2023/09/25 10:11:42;;;;;;;5.10;4.03;;;;;;;;;;5093830;28;20203;-75
2023/09/25 10:14:09;;;;;;;4.25;3.80;;;;;;;;;;5106484;28;20199;-75
2023/09/25 10:16:59;;;;;;;5.28;4.35;;;;;;;;;;5093772;28;20204;-75
2023/09/25 10:19:47;;;;;;;4.72;3.50;;;;;;;;;;5096254;28;20219;-75
2023/09/25 10:22:18;;;;;;;6.95;3.63;;;;;;;;;;5114002;28;20203;-75
2023/09/25 10:24:47;;;;;;;4.30;3.88;;;;;;;;;;5113398;28;20219;-75
2023/09/25 10:27:17;;;;;;;5.00;3.92;;;;;;;;;;5099885;28;20204;-75
2023/09/25 10:30:13;;;;;;;4.75;3.97;;;;;;;;;;5093528;28;20269;-74
2023/09/25 10:32:42;;;;;;;3.67;3.25;;;;;;;;;;5052607;28;20203;-75
2023/09/25 10:35:40;;;;;;;6.63;3.50;;;;;;;;;;5101484;28;20230;-75
2023/09/25 10:38:12;;;;;;;5.80;3.97;;;;;;;;;;5093291;28;20231;-74
2023/09/25 10:40:39;;;;;;;4.78;3.97;;;;;;;;;;5093238;28;20200;-75
2023/09/25 10:43:07;;;;;;;4.28;3.88;;;;;;;;;;5093220;28;20600;-75
2023/09/25 10:45:35;;;;;;;3.65;3.30;;;;;;;;;;5096836;28;20216;-75
2023/09/25 10:48:02;;;;;;;5.07;3.38;;;;;;;;;;5113292;28;20264;-75
2023/09/25 10:50:29;;;;;;;3.90;3.33;;;;;;;;;;5099754;28;20203;-74
2023/09/25 10:52:57;;;;;;;5.30;3.15;;;;;;;;;;5113005;28;20206;-75
2023/09/25 10:55:24;;;;;;;7.95;4.00;;;;;;;;;;5108051;28;20701;-75
2023/09/25 10:57:51;;;;;;;3.75;3.45;;;;;;;;;;5093008;28;20242;-75
2023/09/25 11:00:19;;;;;;;4.88;3.90;;;;;;;;;;5106909;28;20637;-75
2023/09/25 11:02:47;;;;;;;4.00;3.47;;;;;;;;;;5092985;28;20624;-75
2023/09/25 11:05:14;;;;;;;4.78;3.67;;;;;;;;;;5092992;28;20216;-75
2023/09/25 11:07:40;;;;;;;6.20;3.95;;;;;;;;;;5092660;28;20209;-75
2023/09/25 11:10:13;;;;;;;4.70;3.45;;;;;;;;;;5106268;28;20204;-75
2023/09/25 11:12:41;;;;;;;3.85;3.35;;;;;;;;;;5092782;28;20287;-75
2023/09/25 11:15:12;;;;;;;5.15;3.60;;;;;;;;;;5112733;28;20283;-75
2023/09/25 11:17:40;;;;;;;12.10;3.70;;;;;;;;;;5097514;28;20284;-75
2023/09/25 11:20:18;;;;;;;4.32;4.00;;;;;;;;;;5092430;28;20232;-74
2023/09/25 11:22:46;;;;;;;5.55;3.33;;;;;;;;;;5092753;28;20222;-75
2023/09/25 11:25:15;;;;;;;5.88;3.78;;;;;;;;;;5102971;28;20306;-75
2023/09/25 11:27:51;;;;;;;4.68;3.35;;;;;;;;;;5094615;28;20273;-75
2023/09/25 11:30:17;;;;;;;4.85;3.53;;;;;;;;;;5092609;28;20199;-75
2023/09/25 11:32:46;;;;;;;5.95;3.70;;;;;;;;;;5105411;28;20636;-75
2023/09/25 11:35:13;;;;;;;6.70;3.42;;;;;;;;;;5104931;28;20261;-75
2023/09/25 11:37:56;;;;;;;3.72;3.35;;;;;;;;;;5097897;28;20276;-75
2023/09/25 11:40:22;;;;;;;5.05;3.60;;;;;;;;;;5110571;28;20218;-75
2023/09/25 11:42:49;;;;;;;5.13;3.45;;;;;;;;;;5091838;28;20203;-74
2023/09/25 11:45:16;;;;;;;4.88;3.55;;;;;;;;;;5094334;28;20224;-75
2023/09/25 11:47:43;;;;;;;5.38;3.50;;;;;;;;;;5111962;28;20199;-75
2023/09/25 11:50:13;;;;;;;6.75;3.53;;;;;;;;;;5110000;28;20199;-75
2023/09/25 11:52:40;;;;;;;6.32;3.72;;;;;;;;;;5092035;28;20200;-75
2023/09/25 11:55:09;;;;;;;5.53;3.33;;;;;;;;;;5108261;28;20207;-75
2023/09/25 11:57:37;;;;;;;5.40;3.30;;;;;;;;;;5101777;28;20204;-75
2023/09/25 12:00:05;;;;;;;3.13;2.83;;;;;;;;;;5091350;28;20200;-75
2023/09/25 12:02:32;;;;;;;5.60;3.25;;;;;;;;;;5102138;28;20257;-75
2023/09/25 12:04:59;;;;;;;6.00;3.95;;;;;;;;;;5098235;28;20227;-75
2023/09/25 12:07:27;;;;;;;4.72;4.07;;;;;;;;;;5111910;28;20291;-75
2023/09/25 12:09:55;;;;;;;7.20;4.60;;;;;;;;;;5107338;28;20197;-75
2023/09/25 12:12:23;;;;;;;5.13;3.90;;;;;;;;;;5103216;28;20203;-75
2023/09/25 12:14:51;;;;;;;3.90;3.55;;;;;;;;;;5093141;28;20291;-75
2023/09/25 12:17:18;;;;;;;7.40;6.47;;;;;;;;;;5091388;28;20715;-75
2023/09/25 12:19:45;;;;;;;5.20;4.00;;;;;;;;;;5092168;28;20324;-75
2023/09/25 12:22:12;;;;;;;5.88;4.45;;;;;;;;;;5091345;28;20626;-75
2023/09/25 12:24:40;;;;;;;6.95;4.70;;;;;;;;;;5091364;28;20238;-75
2023/09/25 12:27:07;;;;;;;11.00;5.75;;;;;;;;;;5091449;28;20212;-75
2023/09/25 12:29:34;;;;;;;5.38;4.57;;;;;;;;;;5097166;28;20682;-75
2023/09/25 12:32:00;;;;;;;12.38;6.88;;;;;;;;;;5098011;28;20200;-75
2023/09/25 12:34:27;;;;;;;13.07;7.70;;;;;;;;;;5105194;28;20257;-75
2023/09/25 12:36:54;;;;;;;6.53;5.13;;;;;;;;;;5104109;28;20218;-74
2023/09/25 12:39:21;;;;;;;5.75;4.20;;;;;;;;;;5111219;28;20198;-75
2023/09/25 12:41:49;;;;;;;5.47;3.97;;;;;;;;;;5111109;28;20200;-75
2023/09/25 12:44:15;;;;;;;5.63;3.58;;;;;;;;;;5104061;28;20196;-75
2023/09/25 12:46:42;;;;;;;5.75;4.13;;;;;;;;;;5104261;28;20231;-75
2023/09/25 12:49:09;;;;;;;4.85;3.63;;;;;;;;;;5091062;28;20200;-75
2023/09/25 12:51:36;;;;;;;5.68;4.40;;;;;;;;;;5090532;28;20214;-75
2023/09/25 12:54:03;;;;;;;5.97;4.25;;;;;;;;;;5091330;28;20666;-77
2023/09/25 12:56:30;;;;;;;4.72;4.20;;;;;;;;;;5105636;28;20293;-76
2023/09/25 12:58:58;;;;;;;10.95;4.75;;;;;;;;;;5111198;28;20211;-75
2023/09/25 13:01:25;;;;;;;11.13;7.18;;;;;;;;;;5108885;28;20207;-76
2023/09/25 13:03:52;;;;;;;9.70;6.18;;;;;;;;;;5090814;28;20694;-75
2023/09/25 13:06:19;;;;;;;74.10;45.85;;;;;;;;;;5090617;28;20270;-76
2023/09/25 13:08:47;;;;;;;35.58;22.52;;;;;;;;;;5090814;28;20196;-75
2023/09/25 13:11:14;;;;;;;22.20;15.82;;;;;;;;;;5090758;28;20200;-76
2023/09/25 13:13:40;;;;;;;14.13;9.68;;;;;;;;;;5094864;28;20204;-76
2023/09/25 13:16:09;;;;;;;9.95;8.27;;;;;;;;;;5108085;28;20222;-76
2023/09/25 13:18:36;;;;;;;9.82;4.53;;;;;;;;;;5104886;28;20227;-76
2023/09/25 13:21:03;;;;;;;8.00;4.47;;;;;;;;;;5100626;28;20208;-76
2023/09/25 13:23:30;;;;;;;4.72;4.18;;;;;;;;;;5105026;28;20287;-76
2023/09/25 13:25:57;;;;;;;6.00;3.97;;;;;;;;;;5097975;28;20226;-76
2023/09/25 13:28:24;;;;;;;6.15;4.38;;;;;;;;;;5104709;28;20196;-76
2023/09/25 13:30:51;;;;;;;4.28;3.90;;;;;;;;;;5112037;28;20282;-76
2023/09/25 13:33:19;;;;;;;8.13;4.35;;;;;;;;;;5104221;28;20257;-76
2023/09/25 13:35:46;;;;;;;4.57;4.18;;;;;;;;;;5098760;28;20587;-75
2023/09/25 13:38:13;;;;;;;8.80;4.85;;;;;;;;;;5103298;28;20208;-76
2023/09/25 13:40:40;;;;;;;7.45;4.35;;;;;;;;;;5112150;28;20214;-75
2023/09/25 13:43:06;;;;;;;6.53;4.40;;;;;;;;;;5114515;28;20200;-76
2023/09/25 13:45:33;;;;;;;10.98;4.75;;;;;;;;;;5113987;28;20245;-75
2023/09/25 13:48:00;;;;;;;11.05;4.72;;;;;;;;;;5103154;28;20261;-75
2023/09/25 13:50:28;;;;;;;11.18;4.68;;;;;;;;;;5094493;28;20614;-76
2023/09/25 13:52:55;;;;;;;6.00;4.03;;;;;;;;;;5093792;28;20197;-76
2023/09/25 13:55:22;;;;;;;16.13;5.47;;;;;;;;;;5107670;28;20670;-75
2023/09/25 13:57:48;;;;;;;15.32;4.65;;;;;;;;;;5094023;28;20204;-76
2023/09/25 14:00:17;;;;;;;7.68;4.13;;;;;;;;;;5099671;28;20199;-75
2023/09/25 14:02:44;;;;;;;7.95;4.13;;;;;;;;;;5114103;28;20200;-75
2023/09/25 14:05:11;;;;;;;10.60;4.40;;;;;;;;;;5107636;28;20227;-76
2023/09/25 14:07:40;;;;;;;10.77;4.47;;;;;;;;;;5093717;28;20590;-75
2023/09/25 14:10:08;;;;;;;7.10;4.20;;;;;;;;;;5094188;28;20284;-76
2023/09/25 14:12:34;;;;;;;9.77;4.45;;;;;;;;;;5107240;28;20211;-75
2023/09/25 14:15:01;;;;;;;5.20;3.72;;;;;;;;;;5100735;28;20195;-76
2023/09/25 14:17:28;;;;;;;9.68;4.93;;;;;;;;;;5100086;28;20204;-75
2023/09/25 14:19:55;;;;;;;11.25;4.50;;;;;;;;;;5093778;28;20228;-75
2023/09/25 14:22:21;;;;;;;12.77;4.95;;;;;;;;;;5092881;28;20201;-76
2023/09/25 14:24:50;;;;;;;10.05;4.25;;;;;;;;;;5093705;28;20205;-76
2023/09/25 14:27:17;;;;;;;7.43;4.07;;;;;;;;;;5093345;28;20223;-76
2023/09/25 14:29:43;;;;;;;9.40;4.03;;;;;;;;;;5106332;28;20204;-76
2023/09/25 14:32:10;;;;;;;8.90;4.70;;;;;;;;;;5106701;28;20195;-76
2023/09/25 14:34:37;;;;;;;8.25;3.75;;;;;;;;;;5093762;28;20200;-75
2023/09/25 14:37:04;;;;;;;5.82;3.67;;;;;;;;;;5093214;28;20204;-76
2023/09/25 14:39:31;;;;;;;9.82;4.88;;;;;;;;;;5093160;28;20602;-76
2023/09/25 14:41:59;;;;;;;7.38;4.13;;;;;;;;;;5093079;28;20576;-75
2023/09/25 14:44:26;;;;;;;4.32;3.30;;;;;;;;;;5093301;28;20271;-76
2023/09/25 14:46:53;;;;;;;7.57;4.30;;;;;;;;;;5095146;28;20226;-75